Time;durP1;ratioP1;P1;durP2;ratioP2;P2;SDS_P1;SDS_P2;PMS_P1;PMS_P2;Temp;Humidity;BMP_temperature;BMP_pressure;BME280_temperature;BME280_humidity;BME280_pressure;Samples;Min_cycle;Max_cycle;Signal;HPM_P1;HPM_P2
2021/11/25 00:01:04;;;;;;;3.95;2.17;;;;;;;;;;4829810;29;35641;-66
2021/11/25 00:03:31;;;;;;;3.78;2.35;;;;;;;;;;4829632;29;32336;-66
2021/11/25 00:05:58;;;;;;;5.22;2.72;;;;;;;;;;4829965;29;32217;-70
2021/11/25 00:08:24;;;;;;;5.47;2.38;;;;;;;;;;4828656;29;32194;-67
2021/11/25 00:10:51;;;;;;;3.90;2.35;;;;;;;;;;4827043;29;32293;-67
2021/11/25 00:13:17;;;;;;;5.43;2.28;;;;;;;;;;4828576;29;34921;-71
2021/11/25 00:15:46;;;;;;;3.03;2.03;;;;;;;;;;4829343;29;32310;-67
2021/11/25 00:18:12;;;;;;;3.80;2.67;;;;;;;;;;4827778;29;32316;-67
2021/11/25 00:20:39;;;;;;;6.78;3.08;;;;;;;;;;4829602;29;32305;-68
2021/11/25 00:23:05;;;;;;;3.22;2.53;;;;;;;;;;4815152;29;34444;-68
2021/11/25 00:25:32;;;;;;;4.18;2.15;;;;;;;;;;4810907;29;32642;-71
2021/11/25 00:27:58;;;;;;;6.88;2.53;;;;;;;;;;4811033;29;32141;-68
2021/11/25 00:30:25;;;;;;;6.55;2.15;;;;;;;;;;4808318;29;32270;-68
2021/11/25 00:32:53;;;;;;;8.02;2.60;;;;;;;;;;4808092;29;32405;-67
2021/11/25 00:35:20;;;;;;;4.10;2.08;;;;;;;;;;4807872;29;34173;-68
2021/11/25 00:37:46;;;;;;;4.13;2.35;;;;;;;;;;4808816;29;32365;-67
2021/11/25 00:40:18;;;;;;;3.85;2.33;;;;;;;;;;4807022;29;32610;-68
2021/11/25 00:42:45;;;;;;;3.75;1.65;;;;;;;;;;4809094;29;32438;-67
2021/11/25 00:45:14;;;;;;;4.10;1.95;;;;;;;;;;4818950;29;34024;-67
2021/11/25 00:47:40;;;;;;;4.43;2.20;;;;;;;;;;4828260;29;32246;-67
2021/11/25 00:50:13;;;;;;;3.22;2.03;;;;;;;;;;4810556;29;32384;-69
2021/11/25 00:52:40;;;;;;;3.85;1.90;;;;;;;;;;4810860;29;32254;-70
2021/11/25 00:55:08;;;;;;;5.20;2.30;;;;;;;;;;4819353;29;32176;-68
2021/11/25 00:57:35;;;;;;;6.38;2.67;;;;;;;;;;4829062;29;34120;-73
2021/11/25 01:00:04;;;;;;;9.25;2.33;;;;;;;;;;4828672;29;32351;-70
2021/11/25 01:02:30;;;;;;;6.80;2.35;;;;;;;;;;4811344;29;32386;-69
2021/11/25 01:04:57;;;;;;;5.03;2.38;;;;;;;;;;4812760;29;32238;-68
2021/11/25 01:07:26;;;;;;;2.92;1.80;;;;;;;;;;4813299;29;34574;-68
2021/11/25 01:09:52;;;;;;;4.68;2.67;;;;;;;;;;4813193;29;32199;-69
2021/11/25 01:12:20;;;;;;;2.95;2.35;;;;;;;;;;4813515;29;32321;-68
2021/11/25 01:14:46;;;;;;;6.75;2.00;;;;;;;;;;4812750;29;32268;-68
2021/11/25 01:17:13;;;;;;;3.00;1.92;;;;;;;;;;4813454;29;32286;-68
2021/11/25 01:19:40;;;;;;;3.08;2.13;;;;;;;;;;4812850;29;32332;-68
2021/11/25 01:22:06;;;;;;;3.40;2.25;;;;;;;;;;4813188;29;32281;-67
2021/11/25 01:24:34;;;;;;;4.63;2.00;;;;;;;;;;4812867;29;32273;-67
2021/11/25 01:27:01;;;;;;;8.00;2.03;;;;;;;;;;4812669;29;32288;-68
2021/11/25 01:29:27;;;;;;;4.30;2.63;;;;;;;;;;4813850;29;34067;-66
2021/11/25 01:31:54;;;;;;;4.32;2.00;;;;;;;;;;4824412;29;32178;-67
2021/11/25 01:34:21;;;;;;;5.95;2.10;;;;;;;;;;4813162;29;32326;-66
2021/11/25 01:36:49;;;;;;;3.70;2.30;;;;;;;;;;4812785;29;32341;-71
2021/11/25 01:39:17;;;;;;;3.45;2.22;;;;;;;;;;4813088;29;31796;-70
2021/11/25 01:41:47;;;;;;;4.68;2.42;;;;;;;;;;4812668;29;32234;-67
2021/11/25 01:44:14;;;;;;;5.13;2.00;;;;;;;;;;4812984;29;32195;-68
2021/11/25 01:46:41;;;;;;;4.80;2.53;;;;;;;;;;4812895;29;32147;-67
2021/11/25 01:49:08;;;;;;;4.25;2.60;;;;;;;;;;4813029;29;32247;-68
2021/11/25 01:51:34;;;;;;;7.00;2.38;;;;;;;;;;4812216;29;34321;-67
2021/11/25 01:54:01;;;;;;;6.03;2.78;;;;;;;;;;4813200;29;32395;-67
2021/11/25 01:56:27;;;;;;;5.97;2.35;;;;;;;;;;4812966;29;32298;-70
2021/11/25 01:58:56;;;;;;;6.13;2.25;;;;;;;;;;4812807;29;32234;-70
2021/11/25 02:01:24;;;;;;;4.65;2.25;;;;;;;;;;4821707;29;32346;-70
2021/11/25 02:03:54;;;;;;;5.00;2.45;;;;;;;;;;4831076;29;32865;-67
2021/11/25 02:06:20;;;;;;;3.20;2.20;;;;;;;;;;4831119;29;32243;-68
2021/11/25 02:08:47;;;;;;;7.07;3.15;;;;;;;;;;4831076;29;32221;-70
2021/11/25 02:11:14;;;;;;;4.25;2.70;;;;;;;;;;4830039;29;32339;-69
2021/11/25 02:13:41;;;;;;;6.88;2.58;;;;;;;;;;4831258;29;35074;-72
2021/11/25 02:16:09;;;;;;;4.55;3.00;;;;;;;;;;4829564;29;32172;-70
2021/11/25 02:18:36;;;;;;;7.22;2.65;;;;;;;;;;4829476;29;32314;-69
2021/11/25 02:21:04;;;;;;;4.90;2.80;;;;;;;;;;4830557;29;32481;-68
2021/11/25 02:23:31;;;;;;;5.15;2.40;;;;;;;;;;4831087;29;32382;-71
2021/11/25 02:25:58;;;;;;;4.68;2.42;;;;;;;;;;4828154;29;32245;-69
2021/11/25 02:28:28;;;;;;;3.70;2.25;;;;;;;;;;4812312;29;32311;-70
2021/11/25 02:30:55;;;;;;;5.38;2.72;;;;;;;;;;4812857;29;32229;-68
2021/11/25 02:33:22;;;;;;;4.90;2.65;;;;;;;;;;4812699;29;32289;-68
2021/11/25 02:35:49;;;;;;;5.68;2.50;;;;;;;;;;4816590;29;33893;-68
2021/11/25 02:38:17;;;;;;;5.22;3.22;;;;;;;;;;4812178;29;32706;-69
2021/11/25 02:40:46;;;;;;;4.88;2.67;;;;;;;;;;4811731;29;32194;-68
2021/11/25 02:43:16;;;;;;;7.25;3.78;;;;;;;;;;4819820;29;32225;-69
2021/11/25 02:45:48;;;;;;;6.55;2.83;;;;;;;;;;4826910;29;32301;-69
2021/11/25 02:48:18;;;;;;;6.88;2.97;;;;;;;;;;4819375;29;32416;-68
2021/11/25 02:50:45;;;;;;;4.85;2.83;;;;;;;;;;4819129;29;32526;-71
2021/11/25 02:53:13;;;;;;;5.43;3.13;;;;;;;;;;4822285;29;32376;-69
2021/11/25 02:55:42;;;;;;;6.75;3.95;;;;;;;;;;4829965;29;31761;-69
2021/11/25 02:58:08;;;;;;;9.13;3.20;;;;;;;;;;4830548;29;34460;-67
2021/11/25 03:00:40;;;;;;;6.32;3.17;;;;;;;;;;4829958;29;32274;-68
2021/11/25 03:03:10;;;;;;;6.03;3.50;;;;;;;;;;4830036;29;32268;-70
2021/11/25 03:05:40;;;;;;;6.30;3.25;;;;;;;;;;4830364;29;32115;-68
2021/11/25 03:08:09;;;;;;;7.97;3.65;;;;;;;;;;4825248;29;32400;-69
2021/11/25 03:10:37;;;;;;;7.28;3.67;;;;;;;;;;4823904;29;32184;-70
2021/11/25 03:13:07;;;;;;;6.28;3.63;;;;;;;;;;4828912;29;32138;-70
2021/11/25 03:15:36;;;;;;;8.38;3.65;;;;;;;;;;4830147;29;32178;-68
2021/11/25 03:18:03;;;;;;;6.65;3.65;;;;;;;;;;4812912;29;32227;-70
2021/11/25 03:20:30;;;;;;;8.35;3.55;;;;;;;;;;4810051;29;34060;-68
2021/11/25 03:22:56;;;;;;;8.75;3.70;;;;;;;;;;4816326;29;32543;-70
2021/11/25 03:25:23;;;;;;;5.80;3.55;;;;;;;;;;4824658;29;32258;-68
2021/11/25 03:27:50;;;;;;;7.25;3.33;;;;;;;;;;4820851;29;32108;-68
2021/11/25 03:30:19;;;;;;;6.22;3.45;;;;;;;;;;4811155;29;35473;-66
2021/11/25 03:32:45;;;;;;;6.93;3.60;;;;;;;;;;4815461;29;32302;-67
2021/11/25 03:35:12;;;;;;;5.10;3.00;;;;;;;;;;4811242;29;32341;-67
2021/11/25 03:37:38;;;;;;;7.10;4.00;;;;;;;;;;4811211;29;32336;-67
2021/11/25 03:40:08;;;;;;;8.57;3.88;;;;;;;;;;4824025;29;32130;-67
2021/11/25 03:42:35;;;;;;;8.10;3.72;;;;;;;;;;4814654;29;34555;-67
2021/11/25 03:45:01;;;;;;;5.30;3.38;;;;;;;;;;4808634;29;32287;-67
2021/11/25 03:47:30;;;;;;;7.60;3.75;;;;;;;;;;4809896;29;32187;-68
2021/11/25 03:49:56;;;;;;;5.70;2.70;;;;;;;;;;4809841;29;32261;-67
2021/11/25 03:52:23;;;;;;;5.68;3.13;;;;;;;;;;4811403;29;35547;-68
2021/11/25 03:54:54;;;;;;;6.32;3.30;;;;;;;;;;4811360;29;32247;-67
2021/11/25 03:57:21;;;;;;;5.18;2.75;;;;;;;;;;4810996;29;32148;-68
2021/11/25 03:59:48;;;;;;;5.72;3.03;;;;;;;;;;4810977;29;32274;-68
2021/11/25 04:02:15;;;;;;;5.55;3.10;;;;;;;;;;4811245;29;32397;-68
2021/11/25 04:04:43;;;;;;;5.80;3.53;;;;;;;;;;4810033;29;34257;-68
2021/11/25 04:07:09;;;;;;;5.70;3.13;;;;;;;;;;4811051;29;32257;-68
2021/11/25 04:09:36;;;;;;;5.78;3.33;;;;;;;;;;4811201;29;32390;-68
2021/11/25 04:12:03;;;;;;;6.45;3.92;;;;;;;;;;4811176;29;32261;-68
2021/11/25 04:14:30;;;;;;;;;;;;;;;;;;4815356;29;34670;-68
2021/11/25 04:16:57;;;;;;;5.35;3.00;;;;;;;;;;4828986;29;32392;-68
2021/11/25 04:19:24;;;;;;;6.93;2.85;;;;;;;;;;4827545;29;32195;-68
2021/11/25 04:21:52;;;;;;;5.38;3.40;;;;;;;;;;4828394;29;32220;-68
2021/11/25 04:24:20;;;;;;;5.95;3.30;;;;;;;;;;4828846;29;32474;-69
2021/11/25 04:26:47;;;;;;;5.60;3.95;;;;;;;;;;4828845;29;35453;-68
2021/11/25 04:29:15;;;;;;;4.68;3.25;;;;;;;;;;4828673;29;32176;-69
2021/11/25 04:37:15;;;;;;;7.78;3.63;;;;;;;;;;4828680;29;34722;-67
2021/11/25 04:39:42;;;;;;;6.28;3.25;;;;;;;;;;4830670;29;32080;-69
2021/11/25 04:42:10;;;;;;;7.68;3.47;;;;;;;;;;4832003;29;32025;-68
2021/11/25 04:44:36;;;;;;;4.47;3.10;;;;;;;;;;4831694;29;32261;-68
2021/11/25 04:47:04;;;;;;;6.72;3.45;;;;;;;;;;4830772;29;32295;-69
2021/11/25 04:49:30;;;;;;;5.75;3.05;;;;;;;;;;4831661;29;34656;-69
2021/11/25 04:51:57;;;;;;;4.93;3.28;;;;;;;;;;4831927;29;32370;-68
2021/11/25 04:54:25;;;;;;;6.18;3.80;;;;;;;;;;4831409;29;32285;-67
2021/11/25 04:56:52;;;;;;;6.05;3.78;;;;;;;;;;4831889;29;32232;-68
2021/11/25 04:59:18;;;;;;;5.82;3.72;;;;;;;;;;4830162;29;34448;-67
2021/11/25 05:01:45;;;;;;;5.90;3.53;;;;;;;;;;4831574;29;32531;-68
2021/11/25 05:04:11;;;;;;;9.40;3.70;;;;;;;;;;4831962;29;32474;-67
2021/11/25 05:06:38;;;;;;;6.05;3.88;;;;;;;;;;4830806;29;32289;-66
2021/11/25 05:09:05;;;;;;;4.90;3.28;;;;;;;;;;4831528;29;32374;-67
2021/11/25 05:11:33;;;;;;;6.40;3.15;;;;;;;;;;4831336;29;34559;-69
2021/11/25 05:13:59;;;;;;;5.40;3.58;;;;;;;;;;4832175;29;32258;-68
2021/11/25 05:16:26;;;;;;;7.55;3.30;;;;;;;;;;4831029;29;32794;-67
2021/11/25 05:18:53;;;;;;;6.70;3.00;;;;;;;;;;4837459;23;32188;-69
2021/11/25 05:21:20;;;;;;;6.97;3.72;;;;;;;;;;4829567;29;34692;-67
2021/11/25 05:23:46;;;;;;;5.82;3.55;;;;;;;;;;4829627;29;32331;-67
2021/11/25 05:26:13;;;;;;;6.70;4.03;;;;;;;;;;4831451;29;32394;-67
2021/11/25 05:28:41;;;;;;;7.10;3.60;;;;;;;;;;4837530;29;32247;-68
2021/11/25 05:31:07;;;;;;;7.97;4.32;;;;;;;;;;4836448;29;32262;-67
2021/11/25 05:33:34;;;;;;;5.80;3.50;;;;;;;;;;4839002;29;34726;-68
2021/11/25 05:36:00;;;;;;;7.80;4.22;;;;;;;;;;4840125;29;32135;-71
2021/11/25 05:38:27;;;;;;;6.82;3.55;;;;;;;;;;4835775;29;32455;-68
2021/11/25 05:40:54;;;;;;;7.05;3.33;;;;;;;;;;4839933;29;32187;-69
2021/11/25 05:43:20;;;;;;;4.93;3.47;;;;;;;;;;4839822;29;34853;-72
2021/11/25 05:45:48;;;;;;;6.25;3.75;;;;;;;;;;4835519;29;32317;-70
2021/11/25 05:48:15;;;;;;;6.60;4.22;;;;;;;;;;4839269;29;32328;-69
2021/11/25 05:50:42;;;;;;;6.70;4.00;;;;;;;;;;4837860;29;32228;-68
2021/11/25 05:53:09;;;;;;;7.80;4.45;;;;;;;;;;4838339;29;32166;-69
2021/11/25 05:55:35;;;;;;;7.60;3.65;;;;;;;;;;4838576;29;33991;-68
2021/11/25 05:58:02;;;;;;;6.63;3.67;;;;;;;;;;4838106;29;32129;-70
2021/11/25 06:00:28;;;;;;;6.38;3.80;;;;;;;;;;4837972;29;32141;-69
2021/11/25 06:02:57;;;;;;;6.70;3.85;;;;;;;;;;4839551;29;32458;-68
2021/11/25 06:05:24;;;;;;;7.35;3.97;;;;;;;;;;4839290;29;33972;-69
2021/11/25 06:07:51;;;;;;;7.38;4.00;;;;;;;;;;4837866;29;32324;-68
2021/11/25 06:10:22;;;;;;;7.40;4.20;;;;;;;;;;4839028;29;32334;-69
2021/11/25 06:12:50;;;;;;;9.30;3.85;;;;;;;;;;4836573;29;32288;-68
2021/11/25 06:15:17;;;;;;;13.13;4.15;;;;;;;;;;4836199;29;32652;-68
2021/11/25 06:17:44;;;;;;;8.02;3.85;;;;;;;;;;4838011;29;35496;-67
2021/11/25 06:20:15;;;;;;;8.70;3.92;;;;;;;;;;4830979;29;32271;-68
2021/11/25 06:22:45;;;;;;;6.80;4.38;;;;;;;;;;4819157;29;32198;-68
2021/11/25 06:25:14;;;;;;;6.65;3.80;;;;;;;;;;4819422;29;32262;-67
2021/11/25 06:27:40;;;;;;;5.78;3.40;;;;;;;;;;4820009;29;34656;-67
2021/11/25 06:30:10;;;;;;;7.20;4.13;;;;;;;;;;4820627;29;32264;-70
2021/11/25 06:32:37;;;;;;;5.93;3.58;;;;;;;;;;4824399;29;32330;-66
2021/11/25 06:37:53;;;;;;;6.30;3.80;;;;;;;;;;4306354;32;32527;-67
2021/11/25 06:40:27;;;;;;;6.35;4.50;;;;;;;;;;4943563;28;32427;-65
2021/11/25 06:42:54;;;;;;;8.88;4.53;;;;;;;;;;4925291;28;32951;-68
2021/11/25 06:45:21;;;;;;;8.68;4.63;;;;;;;;;;4924942;28;32575;-67
2021/11/25 06:47:47;;;;;;;10.95;6.43;;;;;;;;;;4835773;28;32140;-66
2021/11/25 06:51:13;;;;;;;8.23;4.93;;;;;;;;;;4184577;33;91438;-67
2021/11/25 06:53:40;;;;;;;8.77;3.90;;;;;;;;;;4881981;29;32316;-67
2021/11/25 06:56:06;;;;;;;7.05;4.47;;;;;;;;;;4877627;29;34260;-68
2021/11/25 06:58:33;;;;;;;7.97;4.47;;;;;;;;;;4735763;29;33045;-67
2021/11/25 07:01:03;;;;;;;8.20;5.50;;;;;;;;;;4854711;29;32558;-66
2021/11/25 07:03:33;;;;;;;8.93;4.65;;;;;;;;;;4885181;29;32732;-66
2021/11/25 07:06:00;;;;;;;7.85;5.43;;;;;;;;;;4887924;29;32261;-66
2021/11/25 07:08:28;;;;;;;7.13;4.25;;;;;;;;;;4887559;29;33492;-68
2021/11/25 07:10:55;;;;;;;9.18;4.63;;;;;;;;;;4886235;29;32503;-66
2021/11/25 07:13:21;;;;;;;9.70;4.72;;;;;;;;;;4884795;29;32604;-67
2021/11/25 07:15:48;;;;;;;7.97;4.30;;;;;;;;;;4884325;29;32942;-67
2021/11/25 07:18:14;;;;;;;8.50;4.70;;;;;;;;;;4883721;29;32851;-67
2021/11/25 07:20:41;;;;;;;10.07;5.65;;;;;;;;;;4885137;29;32521;-67
2021/11/25 07:23:07;;;;;;;8.15;5.35;;;;;;;;;;4869095;29;32748;-67
2021/11/25 07:25:35;;;;;;;9.23;4.80;;;;;;;;;;4887362;29;32832;-67
2021/11/25 07:28:02;;;;;;;8.52;4.38;;;;;;;;;;4885749;29;32660;-67
2021/11/25 07:30:29;;;;;;;8.68;3.92;;;;;;;;;;4885882;29;34014;-68
2021/11/25 07:32:56;;;;;;;11.60;5.35;;;;;;;;;;4886149;29;32545;-70
2021/11/25 07:35:23;;;;;;;13.18;6.68;;;;;;;;;;4887294;29;33283;-68
2021/11/25 07:37:53;;;;;;;12.05;6.43;;;;;;;;;;4883116;29;32540;-68
2021/11/25 07:40:22;;;;;;;9.95;6.13;;;;;;;;;;4876760;29;32505;-68
2021/11/25 07:42:52;;;;;;;10.85;5.00;;;;;;;;;;4869412;29;32473;-70
2021/11/25 07:45:19;;;;;;;14.18;6.63;;;;;;;;;;4878162;29;32415;-69
2021/11/25 07:47:46;;;;;;;15.45;5.65;;;;;;;;;;4888679;29;32442;-67
2021/11/25 07:50:15;;;;;;;16.77;6.00;;;;;;;;;;4871147;29;32472;-70
2021/11/25 07:52:42;;;;;;;16.95;6.93;;;;;;;;;;4887562;29;34108;-71
2021/11/25 07:55:12;;;;;;;50.42;14.55;;;;;;;;;;4887810;29;32461;-69
2021/11/25 07:57:39;;;;;;;43.13;11.98;;;;;;;;;;4874068;29;32537;-72
2021/11/25 08:00:09;;;;;;;39.33;12.20;;;;;;;;;;4888153;29;32429;-70
2021/11/25 08:02:36;;;;;;;34.22;12.00;;;;;;;;;;4873426;29;33100;-68
2021/11/25 08:05:04;;;;;;;33.45;11.60;;;;;;;;;;4869651;29;32642;-70
2021/11/25 08:07:31;;;;;;;30.30;10.43;;;;;;;;;;4841347;29;32519;-67
2021/11/25 08:09:57;;;;;;;31.42;10.20;;;;;;;;;;4872874;29;32674;-66
2021/11/25 08:12:24;;;;;;;21.27;8.50;;;;;;;;;;4873595;29;32510;-70
2021/11/25 08:14:50;;;;;;;23.17;7.78;;;;;;;;;;4854261;29;32930;-71
2021/11/25 08:17:18;;;;;;;24.77;7.47;;;;;;;;;;4853521;29;32651;-69
2021/11/25 08:19:45;;;;;;;17.27;6.72;;;;;;;;;;4862174;29;32535;-71
2021/11/25 08:22:14;;;;;;;14.77;5.93;;;;;;;;;;4872880;29;32731;-67
2021/11/25 08:24:40;;;;;;;17.13;7.43;;;;;;;;;;4872725;29;33265;-65
2021/11/25 08:27:07;;;;;;;15.20;5.85;;;;;;;;;;4874126;29;32328;-64
2021/11/25 08:29:34;;;;;;;17.65;8.05;;;;;;;;;;4874002;29;32567;-68
2021/11/25 08:32:00;;;;;;;17.23;7.85;;;;;;;;;;4870993;29;32931;-66
2021/11/25 08:34:29;;;;;;;24.52;6.10;;;;;;;;;;4873058;29;32408;-68
2021/11/25 08:36:56;;;;;;;20.55;8.20;;;;;;;;;;4872229;29;33605;-67
2021/11/25 08:39:23;;;;;;;19.98;5.80;;;;;;;;;;4873522;29;32662;-69
2021/11/25 08:41:49;;;;;;;16.08;6.32;;;;;;;;;;4873880;29;32731;-68
2021/11/25 08:44:16;;;;;;;12.07;5.47;;;;;;;;;;4873227;29;32800;-69
2021/11/25 08:46:42;;;;;;;12.65;6.63;;;;;;;;;;4865075;29;34151;-69
2021/11/25 08:49:09;;;;;;;13.98;6.00;;;;;;;;;;4855268;29;32701;-69
2021/11/25 08:51:37;;;;;;;10.85;5.50;;;;;;;;;;4874933;29;32606;-69
2021/11/25 08:54:05;;;;;;;13.98;6.30;;;;;;;;;;4874443;29;32832;-65
2021/11/25 08:56:32;;;;;;;12.07;5.50;;;;;;;;;;4871621;29;32303;-68
2021/11/25 08:58:59;;;;;;;9.48;6.32;;;;;;;;;;4872610;29;33485;-66
2021/11/25 09:01:26;;;;;;;8.90;4.80;;;;;;;;;;4874024;29;32770;-68
2021/11/25 09:03:53;;;;;;;10.02;5.00;;;;;;;;;;4873282;29;32535;-68
2021/11/25 09:06:20;;;;;;;9.60;6.18;;;;;;;;;;4873995;29;32522;-67
2021/11/25 09:08:48;;;;;;;9.18;4.47;;;;;;;;;;4873716;29;32635;-67
2021/11/25 09:11:15;;;;;;;9.27;6.22;;;;;;;;;;4874167;29;32766;-68
2021/11/25 09:13:42;;;;;;;8.48;5.97;;;;;;;;;;4871587;29;32140;-67
2021/11/25 09:16:08;;;;;;;8.30;4.13;;;;;;;;;;4874442;29;32489;-67
2021/11/25 09:18:35;;;;;;;8.25;4.50;;;;;;;;;;4874106;29;32233;-67
2021/11/25 09:21:02;;;;;;;8.57;4.57;;;;;;;;;;4873873;29;33934;-68
2021/11/25 09:23:29;;;;;;;6.90;4.00;;;;;;;;;;4873898;29;32312;-68
2021/11/25 09:25:57;;;;;;;9.90;6.50;;;;;;;;;;4873846;29;32223;-67
2021/11/25 09:28:27;;;;;;;9.90;6.45;;;;;;;;;;4873916;29;32505;-68
2021/11/25 09:30:55;;;;;;;8.45;6.03;;;;;;;;;;4871485;29;32665;-67
2021/11/25 09:33:21;;;;;;;10.75;4.78;;;;;;;;;;4872606;29;32630;-68
2021/11/25 09:35:48;;;;;;;8.05;5.45;;;;;;;;;;4873044;29;32559;-67
2021/11/25 09:38:16;;;;;;;8.40;4.78;;;;;;;;;;4873378;29;32499;-67
2021/11/25 09:40:46;;;;;;;7.57;4.68;;;;;;;;;;4873273;29;32635;-67
2021/11/25 09:43:21;;;;;;;10.07;6.78;;;;;;;;;;4855095;29;34096;-67
2021/11/25 09:45:50;;;;;;;10.18;5.97;;;;;;;;;;4873342;29;32636;-67
2021/11/25 09:48:18;;;;;;;10.65;6.05;;;;;;;;;;4873240;29;32399;-67
2021/11/25 09:50:49;;;;;;;11.15;5.45;;;;;;;;;;4869782;29;32524;-67
2021/11/25 09:53:18;;;;;;;8.65;5.63;;;;;;;;;;4871946;29;32817;-68
2021/11/25 09:55:48;;;;;;;8.93;6.20;;;;;;;;;;4869642;29;32497;-68
2021/11/25 09:58:19;;;;;;;8.23;5.70;;;;;;;;;;4873247;29;32917;-67
2021/11/25 10:00:49;;;;;;;9.40;4.63;;;;;;;;;;4873242;29;32334;-68
2021/11/25 10:03:17;;;;;;;8.52;4.72;;;;;;;;;;4873584;29;32521;-67
2021/11/25 10:05:46;;;;;;;9.05;6.60;;;;;;;;;;4873257;29;33399;-66
2021/11/25 10:08:26;;;;;;;10.60;4.68;;;;;;;;;;4873143;29;32385;-67
2021/11/25 10:11:01;;;;;;;10.02;6.18;;;;;;;;;;4873428;29;32974;-68
2021/11/25 10:13:38;;;;;;;9.07;5.85;;;;;;;;;;4873746;29;32230;-66
2021/11/25 10:16:08;;;;;;;11.43;6.15;;;;;;;;;;4872208;29;34191;-68
2021/11/25 10:18:36;;;;;;;9.02;5.13;;;;;;;;;;4870585;29;32602;-66
2021/11/25 10:21:05;;;;;;;10.10;5.45;;;;;;;;;;4873091;29;32363;-67
2021/11/25 10:23:33;;;;;;;8.77;6.10;;;;;;;;;;4870019;29;32385;-67
2021/11/25 10:26:03;;;;;;;10.68;6.72;;;;;;;;;;4873425;29;32583;-66
2021/11/25 10:28:40;;;;;;;12.90;6.82;;;;;;;;;;4872659;29;33523;-70
2021/11/25 10:31:12;;;;;;;8.57;5.00;;;;;;;;;;4872471;29;32580;-68
2021/11/25 10:33:52;;;;;;;8.50;4.68;;;;;;;;;;4872486;29;32605;-68
2021/11/25 10:36:32;;;;;;;8.25;6.25;;;;;;;;;;4872463;29;32498;-66
2021/11/25 10:39:12;;;;;;;8.80;4.45;;;;;;;;;;4872594;29;32664;-68
2021/11/25 10:41:41;;;;;;;8.15;4.78;;;;;;;;;;4871528;29;32457;-69
2021/11/25 10:44:22;;;;;;;7.72;4.22;;;;;;;;;;4871772;29;32653;-68
2021/11/25 10:46:55;;;;;;;11.00;4.50;;;;;;;;;;4872268;29;32517;-69
2021/11/25 10:49:40;;;;;;;9.63;5.05;;;;;;;;;;4873058;29;32457;-67
2021/11/25 10:52:16;;;;;;;9.15;5.78;;;;;;;;;;4872066;29;32552;-68
2021/11/25 10:54:48;;;;;;;9.63;6.85;;;;;;;;;;4869683;29;32487;-67
2021/11/25 10:57:15;;;;;;;10.93;6.25;;;;;;;;;;4870996;29;32511;-68
2021/11/25 10:59:46;;;;;;;10.68;5.57;;;;;;;;;;4868146;29;32406;-67
2021/11/25 11:02:29;;;;;;;8.55;4.75;;;;;;;;;;4871930;29;32843;-67
2021/11/25 11:04:59;;;;;;;10.45;5.00;;;;;;;;;;4866925;29;32938;-69
2021/11/25 11:07:29;;;;;;;9.90;5.22;;;;;;;;;;4871724;29;32941;-65
2021/11/25 11:09:57;;;;;;;9.80;5.00;;;;;;;;;;4869676;29;32492;-67
2021/11/25 11:12:41;;;;;;;8.32;4.45;;;;;;;;;;4872487;29;32214;-67
2021/11/25 11:20:44;;;;;;;9.50;6.40;;;;;;;;;;4848008;29;32471;-67
2021/11/25 11:23:12;;;;;;;9.25;6.38;;;;;;;;;;4855598;29;32554;-69
2021/11/25 11:25:42;;;;;;;9.82;5.80;;;;;;;;;;4869307;29;33605;-67
2021/11/25 11:28:10;;;;;;;10.98;6.28;;;;;;;;;;4861639;29;32419;-68
2021/11/25 11:30:40;;;;;;;10.57;6.00;;;;;;;;;;4854166;29;32385;-66
2021/11/25 11:33:09;;;;;;;10.30;5.38;;;;;;;;;;4870792;29;32276;-68
2021/11/25 11:35:38;;;;;;;8.23;4.88;;;;;;;;;;4872561;29;32733;-66
2021/11/25 11:38:06;;;;;;;9.80;6.60;;;;;;;;;;4869330;29;32509;-69
2021/11/25 11:40:38;;;;;;;10.73;6.28;;;;;;;;;;4861572;29;32403;-66
2021/11/25 11:43:05;;;;;;;8.55;5.07;;;;;;;;;;4867647;29;32350;-68
2021/11/25 11:45:34;;;;;;;11.13;5.70;;;;;;;;;;4873970;29;32549;-67
2021/11/25 11:48:06;;;;;;;10.25;6.57;;;;;;;;;;4847329;29;33711;-68
2021/11/25 11:50:36;;;;;;;8.38;4.70;;;;;;;;;;4848777;29;32557;-69
2021/11/25 11:53:07;;;;;;;10.70;5.18;;;;;;;;;;4865574;29;32778;-68
2021/11/25 11:55:37;;;;;;;9.77;6.38;;;;;;;;;;4858213;29;32496;-68
2021/11/25 11:58:31;;;;;;;9.65;5.28;;;;;;;;;;4863889;29;32286;-68
2021/11/25 12:01:04;;;;;;;11.10;6.53;;;;;;;;;;4862683;29;32385;-67
2021/11/25 12:03:36;;;;;;;9.40;5.22;;;;;;;;;;4873033;29;32364;-69
2021/11/25 12:06:04;;;;;;;9.52;5.68;;;;;;;;;;4861197;29;32440;-68
2021/11/25 12:08:43;;;;;;;;;;;;;;;;;;4867314;29;33382;-69
2021/11/25 12:11:16;;;;;;;10.18;5.07;;;;;;;;;;4847258;29;32939;-67
2021/11/25 12:14:07;;;;;;;8.52;6.03;;;;;;;;;;4862236;29;32632;-68
2021/11/25 12:16:37;;;;;;;9.23;4.93;;;;;;;;;;4857046;29;32309;-69
2021/11/25 12:19:08;;;;;;;11.50;6.97;;;;;;;;;;4839391;29;32443;-72
2021/11/25 12:21:40;;;;;;;10.45;6.55;;;;;;;;;;4856370;29;32470;-66
2021/11/25 12:24:26;;;;;;;9.18;5.43;;;;;;;;;;4862862;29;32611;-67
2021/11/25 12:27:13;;;;;;;10.38;7.07;;;;;;;;;;4869088;29;32482;-68
2021/11/25 12:29:46;;;;;;;;;;;;;;;;;;4869192;29;32543;-71
2021/11/25 12:35:39;;;;;;;10.13;6.43;;;;;;;;;;4869803;29;32552;-70
2021/11/25 12:38:11;;;;;;;8.68;6.53;;;;;;;;;;4865851;29;32632;-67
2021/11/25 12:41:00;;;;;;;10.75;6.35;;;;;;;;;;4870904;29;32575;-68
2021/11/25 12:43:30;;;;;;;10.05;6.68;;;;;;;;;;4873029;29;32581;-67
2021/11/25 12:46:03;;;;;;;10.32;5.40;;;;;;;;;;4873637;29;32593;-69
2021/11/25 12:48:32;;;;;;;11.10;7.05;;;;;;;;;;4874190;29;32547;-69
2021/11/25 12:51:06;;;;;;;13.88;6.13;;;;;;;;;;4870743;29;32616;-68
2021/11/25 12:53:37;;;;;;;12.20;5.68;;;;;;;;;;4866771;29;32555;-70
2021/11/25 12:56:15;;;;;;;14.25;6.25;;;;;;;;;;4856346;29;32518;-71
2021/11/25 12:58:56;;;;;;;13.07;8.23;;;;;;;;;;4854183;29;33255;-70
2021/11/25 13:01:27;;;;;;;13.82;6.85;;;;;;;;;;4838998;29;32784;-69
2021/11/25 13:04:05;;;;;;;12.75;6.65;;;;;;;;;;4855689;29;32646;-70
2021/11/25 13:06:34;;;;;;;14.88;6.85;;;;;;;;;;4856872;29;32388;-69
2021/11/25 13:09:05;;;;;;;15.23;7.90;;;;;;;;;;4866037;29;32387;-67
2021/11/25 13:11:32;;;;;;;13.30;7.10;;;;;;;;;;4868377;29;32391;-68
2021/11/25 13:14:03;;;;;;;12.85;6.80;;;;;;;;;;4859018;29;32534;-68
2021/11/25 13:16:31;;;;;;;14.02;6.88;;;;;;;;;;4859451;29;32491;-67
2021/11/25 13:19:03;;;;;;;14.50;6.75;;;;;;;;;;4859043;29;32448;-68
2021/11/25 13:21:34;;;;;;;12.27;6.32;;;;;;;;;;4864509;29;32770;-69
2021/11/25 13:24:11;;;;;;;13.10;7.20;;;;;;;;;;4872941;29;32302;-69
2021/11/25 13:26:46;;;;;;;11.15;7.65;;;;;;;;;;4864429;29;32422;-70
2021/11/25 13:29:13;;;;;;;15.07;7.80;;;;;;;;;;4856055;29;32372;-69
2021/11/25 13:31:41;;;;;;;13.82;7.03;;;;;;;;;;4860656;29;32655;-69
2021/11/25 13:34:09;;;;;;;12.88;6.95;;;;;;;;;;4868209;29;32750;-67
2021/11/25 13:36:58;;;;;;;13.20;6.80;;;;;;;;;;4855747;29;32390;-70
2021/11/25 13:39:32;;;;;;;11.95;6.95;;;;;;;;;;4874277;29;32528;-68
2021/11/25 13:42:00;;;;;;;;;;;;;;;;;;4864322;29;32353;-70
2021/11/25 13:44:32;;;;;;;11.50;6.35;;;;;;;;;;4855923;29;34509;-69
2021/11/25 13:47:01;;;;;;;14.18;7.53;;;;;;;;;;4862393;29;32637;-68
2021/11/25 13:49:31;;;;;;;13.70;6.50;;;;;;;;;;4874354;29;32486;-68
2021/11/25 13:52:10;;;;;;;13.77;6.85;;;;;;;;;;4874009;29;32478;-67
2021/11/25 13:54:37;;;;;;;15.07;9.20;;;;;;;;;;4873656;29;34277;-68
2021/11/25 13:57:08;;;;;;;13.80;8.00;;;;;;;;;;4873976;29;32749;-68
2021/11/25 13:59:36;;;;;;;14.85;8.43;;;;;;;;;;4856744;29;32295;-70
2021/11/25 14:02:02;;;;;;;;;;;;;;;;;;4870381;29;32663;-68
2021/11/25 14:04:30;;;;;;;14.18;6.57;;;;;;;;;;4864585;29;32413;-69
2021/11/25 14:07:11;;;;;;;14.45;8.05;;;;;;;;;;4864324;29;32513;-68
2021/11/25 14:09:41;;;;;;;13.55;6.55;;;;;;;;;;4863312;29;32580;-67
2021/11/25 14:12:12;;;;;;;11.98;6.22;;;;;;;;;;4852988;29;32539;-70
2021/11/25 14:14:41;;;;;;;13.68;7.85;;;;;;;;;;4853925;29;32616;-68
2021/11/25 14:17:13;;;;;;;13.13;6.78;;;;;;;;;;4857754;29;33188;-67
2021/11/25 14:19:43;;;;;;;13.55;8.10;;;;;;;;;;4867083;29;32316;-67
2021/11/25 14:22:20;;;;;;;12.60;5.78;;;;;;;;;;4863749;29;32395;-67
2021/11/25 14:24:48;;;;;;;11.70;5.93;;;;;;;;;;4862010;29;32601;-67
2021/11/25 14:32:37;;;;;;;11.75;6.22;;;;;;;;;;4867721;29;32565;-69
2021/11/25 14:35:05;;;;;;;11.55;6.45;;;;;;;;;;4866269;29;32463;-68
2021/11/25 14:37:36;;;;;;;13.82;7.68;;;;;;;;;;4851075;29;32343;-68
2021/11/25 14:40:11;;;;;;;11.20;5.57;;;;;;;;;;4863838;29;32827;-69
2021/11/25 14:42:38;;;;;;;14.85;8.07;;;;;;;;;;4871718;29;32805;-69
2021/11/25 14:45:11;;;;;;;9.90;5.55;;;;;;;;;;4863007;29;32409;-67
2021/11/25 14:47:43;;;;;;;17.73;5.47;;;;;;;;;;4862327;29;32588;-66
2021/11/25 14:50:25;;;;;;;13.40;5.25;;;;;;;;;;4865160;29;32702;-67
2021/11/25 14:53:06;;;;;;;11.55;5.38;;;;;;;;;;4860150;29;34015;-69
2021/11/25 14:55:33;;;;;;;14.32;7.15;;;;;;;;;;4864047;29;32644;-66
2021/11/25 14:58:02;;;;;;;13.13;5.80;;;;;;;;;;4863355;29;32481;-69
2021/11/25 15:00:36;;;;;;;15.75;6.43;;;;;;;;;;4867699;29;32027;-68
2021/11/25 15:03:07;;;;;;;11.35;7.05;;;;;;;;;;4867546;29;32613;-69
2021/11/25 15:05:37;;;;;;;13.93;7.70;;;;;;;;;;4862703;29;32496;-67
2021/11/25 15:08:08;;;;;;;13.75;5.60;;;;;;;;;;4867592;29;32499;-68
2021/11/25 15:10:37;;;;;;;11.52;6.80;;;;;;;;;;4866474;29;33142;-68
2021/11/25 15:13:05;;;;;;;11.18;5.65;;;;;;;;;;4869301;29;32599;-68
2021/11/25 15:15:33;;;;;;;12.65;5.70;;;;;;;;;;4874131;29;32487;-68